Skip Navigation

Christman Field Latest Observations

Switch to metric unitsOther observation timesWeekly graphs

Date Time
MST
Temp
°F
RH
%
DewPt
°F
Wind
mph
Dir
°
Gust
mph
Dir
°
Press
in Hg
Solar
W/m^2
Prec
in
2019-05-20 09:25 36.1 92.3 34.1 5.7 91 7.7 84 24.707 160.5 0.00
2019-05-20 09:20 36.0 92.9 34.2 6.0 100 8.3 72 24.711 159.4 0.00
2019-05-20 09:15 36.2 93.3 34.5 6.5 92 8.3 78 24.711 202.7 0.00
2019-05-20 09:10 36.0 93.2 34.2 6.3 72 9.2 66 24.711 251.3 0.00
2019-05-20 09:05 36.1 92.1 34.1 5.5 71 9.1 71 24.712 45.6 0.00
2019-05-20 09:00 36.1 91.2 33.8 6.8 78 9.2 80 24.716 108.8 0.00
2019-05-20 08:55 36.1 92.3 34.1 7.5 72 9.1 82 24.718 158.8 0.00
2019-05-20 08:50 35.9 92.6 34.0 6.6 68 10.2 100 24.719 147.1 0.00
2019-05-20 08:45 35.8 92.7 33.9 6.9 70 8.9 93 24.724 126.7 0.00
2019-05-20 08:40 35.8 93.1 34.0 5.8 99 8.7 91 24.726 128.9 0.00
2019-05-20 08:35 35.6 93.7 34.0 6.4 96 10.8 78 24.728 128.5 0.00
2019-05-20 08:30 35.8 94.6 34.4 5.2 115 8.2 127 24.729 90.8 0.00
2019-05-20 08:25 35.8 94.6 34.4 3.5 110 5.3 117 24.730 75.7 0.00
2019-05-20 08:20 35.8 94.9 34.5 3.2 112 5.3 129 24.730 104.6 0.00
2019-05-20 08:15 36.0 94.9 34.7 4.0 130 7.0 107 24.731 100.1 0.00
2019-05-20 08:10 35.8 95.5 34.7 3.2 106 5.1 98 24.732 117.7 0.00
2019-05-20 08:05 35.4 95.4 34.2 4.5 119 7.5 84 24.731 155.2 0.00
2019-05-20 08:00 35.1 95.5 33.9 5.5 102 7.9 94 24.734 146.6 0.00
2019-05-20 07:55 35.0 95.6 33.9 5.3 87 8.2 108 24.735 114.4 0.00
2019-05-20 07:50 34.9 95.6 33.8 7.2 90 13.0 112 24.735 99.8 0.00
2019-05-20 07:45 34.9 95.9 33.8 6.0 106 10.2 91 24.736 89.6 0.00
2019-05-20 07:40 34.9 95.6 33.8 7.9 103 10.7 94 24.738 48.8 0.00
2019-05-20 07:35 35.1 95.5 34.0 6.3 86 11.4 105 24.736 44.8 0.00
2019-05-20 07:30 35.1 95.8 34.0 4.8 85 8.6 100 24.736 66.0 0.00
2019-05-20 07:25 35.0 95.7 33.9 4.7 80 7.9 113 24.740 60.0 0.00
2019-05-20 07:20 34.9 95.5 33.8 5.8 106 8.7 138 24.741 55.0 0.00
2019-05-20 07:15 34.8 95.4 33.6 6.9 127 10.6 127 24.741 47.0 0.00
2019-05-20 07:10 35.0 95.6 33.8 5.1 95 9.3 95 24.743 41.3 0.00
2019-05-20 07:05 35.2 95.8 34.1 5.2 104 8.7 108 24.742 41.0 0.00
2019-05-20 07:00 35.2 96.1 34.2 3.0 91 6.5 111 24.742 34.5 0.00